Latest Coastal Weather Observations for Creal Reef

IDQ60701

Issued at 12:01 am EST Monday 20 April 2015 (issued every 10 minutes, with the page automatically refreshed every 10 minutes)

About coastal observations | Map of coastal stations | Coastal observations for QLD | Marine services | Other Formats
Station Details ID: 200736 Name: CREAL REEF Lat: -20.53 Lon: 150.38 Height: 1.7 m
Data from the previous 72 hours. | See also: Recent months for locations in Queensland
Date/Time
EST
Temp

°C
Wind Pressure Rain
since 9am
mm
Weather Cloud Vis
km
Sea
Height
m
Swell
Dir
 
Speed
knots
Gust
knots
hPa Trend Height
m
Period
s
Dir
20/12:00am 26.2 E 15 17 1015.9 - - - - - - - - -
 
Date/Time
EST
Temp

°C
Wind Pressure Rain
since 9am
mm
Weather Cloud Vis
km
Sea
Height
m
Swell
Dir
 
Speed
knots
Gust
knots
hPa Trend Height
m
Period
s
Dir
19/11:30pm 25.8 E 18 21 1016.0 - - - - - - - - -
19/11:20pm 26.3 ESE 14 - 1016.0 - - - - - - - - -
19/11:00pm 26.2 ESE 12 14 1016.1 - - - - - - - - -
19/10:30pm 26.2 E 12 15 1016.4 - - - - - - - - -
19/10:20pm 26.4 ESE 14 - 1016.3 - - - - - - - - -
19/10:00pm 26.5 ESE 14 15 1016.5 - - - - - - - - -
19/09:30pm 26.4 ESE 14 16 1016.3 - - - - - - - - -
19/09:20pm 26.4 ESE 14 - 1016.2 - - - - - - - - -
19/09:00pm 26.3 ESE 14 16 1016.2 - - - - - - - - -
19/08:30pm 26.3 SE 14 16 1016.1 - - - - - - - - -
19/08:20pm 26.2 SE 14 - 1015.9 - - - - - - - - -
19/08:00pm 26.1 ESE 13 16 1016.0 - - - - - - - - -
19/07:30pm 26.0 SE 14 16 1015.6 - - - - - - - - -
19/07:20pm 25.9 SE 14 - 1015.4 - - - - - - - - -
19/07:00pm 26.0 SE 14 17 1015.2 - - - - - - - - -
19/06:30pm 25.9 SE 14 17 1014.7 - - - - - - - - -
19/06:20pm 26.1 SE 14 - 1014.5 - - - - - - - - -
19/06:00pm 26.1 ESE 13 15 1014.7 - - - - - - - - -
19/05:30pm 26.1 SE 12 15 1014.5 - - - - - - - - -
19/05:20pm 26.2 SE 12 - 1014.3 - - - - - - - - -
19/05:00pm 26.5 SSE 12 14 1014.3 - - - - - - - - -
19/04:30pm 26.5 SSE 12 15 1014.2 - - - - - - - - -
19/04:20pm 26.7 SSE 13 - 1014.0 - - - - - - - - -
19/04:00pm 26.5 SSE 12 15 1014.1 - - - - - - - - -
19/03:30pm 26.7 SSE 11 15 1014.0 - - - - - - - - -
19/03:20pm 26.8 SSE 12 - 1014.0 - - - - - - - - -
19/03:00pm 26.6 SSE 11 14 1014.2 - - - - - - - - -
19/02:30pm 26.7 SE 11 13 1014.3 - - - - - - - - -
19/02:20pm 26.6 SE 11 - 1014.2 - - - - - - - - -
19/02:00pm 26.6 SE 11 13 1014.4 - - - - - - - - -
19/01:30pm 26.4 SE 12 13 1014.6 - - - - - - - - -
19/01:20pm 26.4 SE 12 - 1014.6 - - - - - - - - -
19/01:00pm 26.5 SE 11 13 1015.0 - - - - - - - - -
19/12:30pm 26.5 SE 11 13 1015.5 - - - - - - - - -
19/12:20pm 26.5 SE 11 - 1015.5 - - - - - - - - -
19/12:00pm 26.6 ESE 10 13 1015.9 - - - - - - - - -
19/11:30am 26.5 ESE 12 15 1016.4 - - - - - - - - -
19/11:20am 26.5 SE 12 - 1016.5 - - - - - - - - -
19/11:00am 26.5 SE 11 13 1016.9 - - - - - - - - -
19/10:30am 26.6 SE 13 15 1017.0 - - - - - - - - -
19/10:20am 26.4 SE 13 - 1017.0 - - - - - - - - -
19/10:00am 26.6 SE 13 15 1017.1 - - - - - - - - -
19/09:30am 26.7 ESE 13 15 1016.9 - - - - - - - - -
19/09:20am 26.6 ESE 13 - 1016.9 - - - - - - - - -
19/09:00am 26.5 ESE 13 15 1016.8 - - - - - - - - -
19/08:30am 26.5 ESE 13 15 1016.7 - - - - - - - - -
19/08:20am 26.4 ESE 13 - 1016.6 - - - - - - - - -
19/08:00am 26.2 ESE 14 16 1016.4 - - - - - - - - -
19/07:30am 26.1 ESE 13 15 1016.3 - - - - - - - - -
19/07:20am 26.1 ESE 13 - 1016.1 - - - - - - - - -
19/07:00am 26.0 ESE 14 16 1016.0 - - - - - - - - -
19/06:30am 25.9 E 13 15 1015.7 - - - - - - - - -
19/06:20am 25.6 E 14 - 1015.6 - - - - - - - - -
19/06:00am 25.3 E 15 17 1015.5 - - - - - - - - -
19/05:30am 25.4 E 15 17 1015.1 - - - - - - - - -
19/05:20am 25.4 E 14 - 1014.9 - - - - - - - - -
19/05:00am 25.4 ENE 16 18 1015.0 - - - - - - - - -
19/04:30am 26.2 E 17 19 1014.8 - - - - - - - - -
19/04:20am 26.1 E 17 - 1014.7 - - - - - - - - -
19/04:00am 26.2 E 17 19 1014.8 - - - - - - - - -
19/03:30am 26.3 E 17 20 1014.7 - - - - - - - - -
19/03:20am 26.2 ESE 17 - 1014.6 - - - - - - - - -
19/03:00am 26.3 E 18 21 1014.8 - - - - - - - - -
19/02:30am 26.2 E 19 21 1015.0 - - - - - - - - -
19/02:20am 26.2 E 18 - 1015.0 - - - - - - - - -
19/02:00am 26.0 E 20 22 1015.3 - - - - - - - - -
19/01:30am 26.5 E 17 19 1015.5 - - - - - - - - -
19/01:20am 26.4 E 17 - 1015.6 - - - - - - - - -
19/01:00am 26.4 ESE 18 20 1016.0 - - - - - - - - -
19/12:30am 26.5 ESE 17 19 1016.4 - - - - - - - - -
19/12:20am 26.4 E 16 - 1016.4 - - - - - - - - -
19/12:00am 26.5 ESE 16 18 1016.7 - - - - - - - - -
 
Date/Time
EST
Temp

°C
Wind Pressure Rain
since 9am
mm
Weather Cloud Vis
km
Sea
Height
m
Swell
Dir
 
Speed
knots
Gust
knots
hPa Trend Height
m
Period
s
Dir
18/11:30pm 26.4 ESE 16 19 1016.7 - - - - - - - - -
18/11:20pm 26.5 ESE 16 - 1016.6 - - - - - - - - -
18/11:00pm 26.5 ESE 16 20 1016.8 - - - - - - - - -
18/10:30pm 26.1 ESE 12 16 1016.8 - - - - - - - - -
18/10:20pm 26.0 ESE 16 - 1016.8 - - - - - - - - -
18/10:00pm 25.9 E 12 17 1016.8 - - - - - - - - -
18/09:30pm 26.3 SE 15 17 1016.9 - - - - - - - - -
18/09:20pm 26.3 SE 15 - 1016.9 - - - - - - - - -
18/09:00pm 26.3 SE 14 18 1016.9 - - - - - - - - -
18/08:30pm 26.5 SE 16 19 1016.6 - - - - - - - - -
18/08:20pm 26.4 SE 15 - 1016.4 - - - - - - - - -
18/08:00pm 26.2 SE 17 21 1016.3 - - - - - - - - -
18/07:30pm 26.2 SE 16 20 1016.0 - - - - - - - - -
18/07:20pm 26.1 SE 18 - 1015.7 - - - - - - - - -
18/07:00pm 26.5 SE 16 17 1015.6 - - - - - - - - -
18/06:30pm 26.6 SE 15 16 1015.6 - - - - - - - - -
18/06:20pm 26.6 SE 15 - 1015.4 - - - - - - - - -
18/06:00pm 26.5 SE 15 17 1015.4 - - - - - - - - -
18/05:30pm 26.7 SE 15 17 1015.2 - - - - - - - - -
18/05:20pm 26.6 SE 14 - 1015.0 - - - - - - - - -
18/05:00pm 26.8 SE 14 16 1015.0 - - - - - - - - -
18/04:30pm 26.9 ESE 14 16 1014.9 - - - - - - - - -
18/04:20pm 26.9 ESE 16 - 1014.7 - - - - - - - - -
18/04:00pm 26.8 SE 16 18 1014.7 - - - - - - - - -
18/03:30pm 26.6 SE 17 19 1014.6 - - - - - - - - -
18/03:20pm 26.7 SE 16 - 1014.6 - - - - - - - - -
18/03:00pm 26.8 ESE 15 17 1014.8 - - - - - - - - -
18/02:30pm 26.5 ESE 13 15 1014.9 - - - - - - - - -
18/02:20pm 26.5 SE 14 - 1014.9 - - - - - - - - -
18/02:00pm 26.4 SE 14 16 1015.0 - - - - - - - - -
18/01:30pm 26.4 ESE 13 15 1015.3 - - - - - - - - -
18/01:20pm 26.4 ESE 14 - 1015.3 - - - - - - - - -
18/01:00pm 26.3 ESE 13 16 1015.5 - - - - - - - - -
18/12:30pm 26.2 ESE 15 17 1015.9 - - - - - - - - -
18/12:20pm 26.3 ESE 15 - 1016.0 - - - - - - - - -
18/12:00pm 26.3 E 14 17 1016.5 - - - - - - - - -
18/11:30am 26.2 SE 14 17 1017.0 - - - - - - - - -
18/11:20am 26.4 SE 15 - 1017.0 - - - - - - - - -
18/11:00am 26.6 E 15 18 1017.3 - - - - - - - - -
18/10:30am 26.5 E 16 19 1017.5 - - - - - - - - -
18/10:20am 26.5 ESE 17 - 1017.3 - - - - - - - - -
18/10:00am 26.5 ESE 18 21 1017.5 - - - - - - - - -
18/09:30am 26.5 ESE 18 21 1017.4 - - - - - - - - -
18/09:20am 26.3 ESE 18 - 1017.3 - - - - - - - - -
18/09:00am 26.5 ESE 18 21 1017.3 - - - - - - - - -
18/08:30am 26.6 E 19 22 1016.9 - - - - - - - - -
18/08:20am 26.5 E 19 - 1016.7 - - - - - - - - -
18/08:00am 26.5 E 18 21 1016.9 - - - - - - - - -
18/07:30am 26.4 ESE 17 20 1016.7 - - - - - - - - -
18/07:20am 26.4 ESE 18 - 1016.4 - - - - - - - - -
18/07:00am 26.4 ESE 18 20 1016.3 - - - - - - - - -
18/06:30am 26.2 ESE 18 20 1015.8 - - - - - - - - -
18/06:20am 26.1 ESE 18 - 1015.6 - - - - - - - - -
18/06:00am 26.1 ESE 17 20 1015.5 - - - - - - - - -
18/05:30am 26.1 SE 17 19 1015.3 - - - - - - - - -
18/05:20am 26.1 SE 17 - 1015.3 - - - - - - - - -
18/05:00am 26.1 ESE 17 20 1015.2 - - - - - - - - -
18/04:30am 26.1 ESE 19 22 1015.1 - - - - - - - - -
18/04:20am 26.1 ESE 19 - 1015.1 - - - - - - - - -
18/04:00am 26.1 ESE 19 22 1015.2 - - - - - - - - -
18/03:30am 26.2 ESE 20 24 1015.1 - - - - - - - - -
18/03:20am 26.2 ESE 20 - 1015.0 - - - - - - - - -
18/03:00am 26.2 E 21 24 1015.1 - - - - - - - - -
18/02:30am 26.3 ESE 21 24 1015.2 - - - - - - - - -
18/02:20am 26.3 E 20 - 1015.1 - - - - - - - - -
18/02:00am 26.2 ESE 21 24 1015.4 - - - - - - - - -
18/01:30am 26.3 ESE 21 24 1015.6 - - - - - - - - -
18/01:20am 26.3 E 21 - 1015.6 - - - - - - - - -
18/01:00am 26.4 ESE 21 25 1015.9 - - - - - - - - -
18/12:30am 26.4 E 21 26 1016.1 - - - - - - - - -
18/12:20am 26.4 E 21 - 1016.1 - - - - - - - - -
18/12:00am 26.5 E 22 26 1016.3 - - - - - - - - -
 
Date/Time
EST
Temp

°C
Wind Pressure Rain
since 9am
mm
Weather Cloud Vis
km
Sea
Height
m
Swell
Dir
 
Speed
knots
Gust
knots
hPa Trend Height
m
Period
s
Dir
17/11:30pm 26.5 ESE 23 27 1016.4 - - - - - - - - -
17/11:20pm 26.5 ESE 24 - 1016.3 - - - - - - - - -
17/11:00pm 26.5 ESE 23 27 1016.6 - - - - - - - - -
17/10:30pm 26.5 ESE 22 25 1016.8 - - - - - - - - -
17/10:20pm 26.5 ESE 23 - 1016.8 - - - - - - - - -
17/10:00pm 26.6 ESE 22 25 1016.9 - - - - - - - - -
17/09:30pm 26.5 ESE 22 26 1016.9 - - - - - - - - -
17/09:20pm 26.6 ESE 22 - 1016.8 - - - - - - - - -
17/09:00pm 26.7 ESE 22 26 1016.9 - - - - - - - - -
17/08:30pm 26.6 ESE 22 27 1016.7 - - - - - - - - -
17/08:20pm 26.6 ESE 22 - 1016.5 - - - - - - - - -
17/08:00pm 26.6 ESE 23 26 1016.5 - - - - - - - - -
17/07:30pm 26.6 ESE 21 26 1016.3 - - - - - - - - -
17/07:20pm 26.6 ESE 22 - 1016.0 - - - - - - - - -
17/07:00pm 26.6 ESE 22 26 1015.9 - - - - - - - - -
17/06:30pm 26.4 ESE 22 25 1015.6 - - - - - - - - -
17/06:20pm 26.5 ESE 22 - 1015.3 - - - - - - - - -
17/06:00pm 26.4 ESE 21 23 1015.3 - - - - - - - - -
17/05:30pm 26.6 ESE 20 23 1015.1 - - - - - - - - -
17/05:20pm 26.5 ESE 21 - 1015.0 - - - - - - - - -
17/05:00pm 26.6 ESE 20 23 1015.0 - - - - - - - - -
17/04:30pm 26.4 ESE 20 23 1014.9 - - - - - - - - -
17/04:20pm 26.6 ESE 21 - 1014.7 - - - - - - - - -
17/04:00pm 26.6 ESE 21 24 1014.8 - - - - - - - - -
17/03:30pm 26.7 ESE 21 25 1014.6 - - - - - - - - -
17/03:20pm 26.5 ESE 22 - 1014.6 - - - - - - - - -
17/03:00pm 26.7 ESE 21 25 1014.7 - - - - - - - - -
17/02:30pm 26.6 ESE 20 24 1015.0 - - - - - - - - -
17/02:20pm 26.6 ESE 19 - 1014.9 - - - - - - - - -
17/02:00pm 26.6 ESE 21 24 1015.1 - - - - - - - - -
17/01:30pm 26.6 ESE 18 21 1015.5 - - - - - - - - -
17/01:20pm 26.5 ESE 18 - 1015.6 - - - - - - - - -
17/01:00pm 26.5 ESE 20 23 1015.9 - - - - - - - - -
17/12:30pm 26.6 ESE 20 22 1016.4 - - - - - - - - -
17/12:20pm 26.6 ESE 19 - 1016.4 - - - - - - - - -
17/12:00pm 26.6 ESE 20 23 1016.8 - - - - - - - - -
17/11:30am 26.6 ESE 19 22 1017.2 - - - - - - - - -
17/11:20am 26.6 ESE 19 - 1017.3 - - - - - - - - -
17/11:00am 26.5 ESE 20 23 1017.7 - - - - - - - - -
17/10:30am 26.4 ESE 20 24 1018.1 - - - - - - - - -
17/10:20am 26.5 ESE 21 - 1018.1 - - - - - - - - -
17/10:00am 26.4 ESE 21 25 1018.3 - - - - - - - - -
17/09:30am 26.5 ESE 22 25 1018.5 - - - - - - - - -
17/09:20am 26.4 ESE 21 - 1018.5 - - - - - - - - -
17/09:00am 26.4 ESE 21 25 1018.6 - - - - - - - - -
17/08:30am 26.3 ESE 23 26 1018.5 - - - - - - - - -
17/08:20am 26.3 ESE 23 - 1018.3 - - - - - - - - -
17/08:00am 24.9 ESE 19 25 1018.3 - - - - - - - - -
17/07:30am 25.7 ESE 23 29 1018.0 - - - - - - - - -
17/07:24am 25.6 SE 19 29 1018.0 - - - - - - - - -
17/07:20am 25.9 SE 18 - 1017.8 - - - - - - - - -
17/07:00am 25.8 SE 18 23 1017.8 - - - - - - - - -
17/06:30am 26.1 ESE 21 24 1017.5 - - - - - - - - -
17/06:20am 26.3 ESE 20 - 1017.3 - - - - - - - - -
17/06:00am 25.6 ESE 23 26 1017.2 - - - - - - - - -
17/05:30am 25.8 ESE 23 26 1016.9 - - - - - - - - -
17/05:20am 25.9 ESE 23 - 1016.7 - - - - - - - - -
17/05:00am 25.8 ESE 22 26 1016.7 - - - - - - - - -
17/04:39am 26.1 ESE 20 22 1016.5 - - - - - - - - -
17/04:30am 25.3 E 13 16 1016.5 - - - - - - - - -
17/04:20am 24.8 E 17 - 1016.3 - - - - - - - - -
17/04:10am 24.9 E 19 23 1016.4 - - - - - - - - -
17/04:00am 25.8 ESE 21 24 1016.4 - - - - - - - - -
17/03:30am 25.7 ESE 22 25 1016.4 - - - - - - - - -
17/03:20am 25.6 ESE 20 - 1016.3 - - - - - - - - -
17/03:00am 26.2 ESE 18 21 1016.6 - - - - - - - - -
17/02:30am 26.1 ESE 17 19 1016.7 - - - - - - - - -
17/02:20am 26.0 ESE 18 - 1016.7 - - - - - - - - -
17/02:00am 26.1 ESE 19 23 1017.1 - - - - - - - - -
17/01:30am 26.1 ESE 21 25 1017.4 - - - - - - - - -
17/01:20am 26.2 ESE 21 - 1017.3 - - - - - - - - -
17/01:00am 26.2 ESE 23 25 1017.7 - - - - - - - - -
17/12:30am 26.2 ESE 23 27 1018.1 - - - - - - - - -
17/12:20am 26.3 E 20 - 1018.1 - - - - - - - - -

Other Formats:

Comma delimited format used in spreadsheet applications
http://www.bom.gov.au/fwo/IDQ60701/IDQ60701.94371.axf

JavaScript Object Notation format (JSON) in row-major order
http://www.bom.gov.au/fwo/IDQ60701/IDQ60701.94371.json